CES214 EGKK-ZSPD
Flight info
| Callsign | CES214 |
|---|---|
| Flight time | N/A |
| Altitude | 35000 |
| Route | FRANE M604 PAAVO Q295 SOMVA DCT MAVAS DCT SPY N873 ANDIK DCT KUBAT DCT DOSUR DCT TALSA DCT TUKMA P989 MEGAS/K0904F350 P989 OBIBA P997 AKUGI T635 SADER T580 ADMUR G117 XV R229 BA R104 ABK A308 TR P982 DARNO/K0891S1065 Y746 NIXAL B208 CGO W129 KAMDA W128 FYG B208 HFE R343 SASAN SAS11A |
| Aircraft | B789/H-SDE1E2E3FGHIJ2J3J4J5M1RWXY/LB1D1 |
Departure
| Time | N/A |
|---|---|
| Airport | London Gatwick Airport (EGKK) |
Arrival
| Time | 2026-05-07 07:18 |
|---|---|
| Airport | Shanghai Pudong International Airport (ZSPD) |
| Time | Latitude | Longitude | Altitude | Speed | Heading |
|---|---|---|---|---|---|
| 2026-05-07 05:41 | 38.53137 | 112.43452 | 39237 ft | 525 kts | 180° |
| 2026-05-07 05:42 | 38.45991 | 112.45172 | 39227 ft | 521 kts | 180° |
| 2026-05-07 05:42 | 38.38846 | 112.46858 | 39229 ft | 523 kts | 180° |
| 2026-05-07 05:43 | 38.31693 | 112.48548 | 39223 ft | 523 kts | 180° |
| 2026-05-07 05:43 | 38.24536 | 112.50236 | 39168 ft | 523 kts | 181° |
| 2026-05-07 05:44 | 38.17405 | 112.51914 | 39215 ft | 520 kts | 181° |
| 2026-05-07 05:44 | 38.10348 | 112.53572 | 39219 ft | 519 kts | 181° |
| 2026-05-07 05:45 | 38.03217 | 112.55238 | 39216 ft | 522 kts | 181° |
| 2026-05-07 05:45 | 37.96075 | 112.56913 | 39210 ft | 521 kts | 181° |
| 2026-05-07 05:46 | 37.88933 | 112.58578 | 39208 ft | 521 kts | 181° |
| 2026-05-07 05:46 | 37.81805 | 112.60261 | 39210 ft | 521 kts | 180° |
| 2026-05-07 05:47 | 37.74703 | 112.61992 | 39207 ft | 521 kts | 176° |
| 2026-05-07 05:47 | 37.67695 | 112.64330 | 39218 ft | 524 kts | 176° |
| 2026-05-07 05:48 | 37.60631 | 112.66675 | 39218 ft | 526 kts | 176° |
| 2026-05-07 05:48 | 37.53563 | 112.69054 | 39210 ft | 524 kts | 176° |
| 2026-05-07 05:49 | 37.46514 | 112.71398 | 39204 ft | 523 kts | 176° |
| 2026-05-07 05:49 | 37.39489 | 112.73743 | 39206 ft | 523 kts | 176° |
| 2026-05-07 05:50 | 37.32443 | 112.76084 | 39213 ft | 524 kts | 176° |
| 2026-05-07 05:50 | 37.25384 | 112.78428 | 39212 ft | 525 kts | 176° |
| 2026-05-07 05:51 | 37.18317 | 112.80767 | 39209 ft | 525 kts | 176° |
| 2026-05-07 05:51 | 37.11256 | 112.83106 | 39206 ft | 523 kts | 176° |
| 2026-05-07 05:52 | 37.04251 | 112.85413 | 39194 ft | 523 kts | 176° |
| 2026-05-07 05:52 | 36.97221 | 112.87740 | 39183 ft | 522 kts | 176° |
| 2026-05-07 05:53 | 36.90186 | 112.90057 | 39181 ft | 523 kts | 176° |
| 2026-05-07 05:53 | 36.84325 | 112.91986 | 39186 ft | 524 kts | 176° |
| 2026-05-07 05:54 | 36.77288 | 112.94301 | 39177 ft | 522 kts | 176° |
| 2026-05-07 05:54 | 36.70248 | 112.96607 | 39178 ft | 523 kts | 176° |
| 2026-05-07 05:55 | 36.63201 | 112.98917 | 39181 ft | 523 kts | 176° |
| 2026-05-07 05:55 | 36.56167 | 113.01213 | 39179 ft | 522 kts | 176° |
| 2026-05-07 05:56 | 36.49144 | 113.03504 | 39173 ft | 521 kts | 176° |
| 2026-05-07 05:56 | 36.42165 | 113.05776 | 39172 ft | 521 kts | 176° |
| 2026-05-07 05:57 | 36.35132 | 113.08061 | 39145 ft | 521 kts | 176° |
| 2026-05-07 05:57 | 36.28110 | 113.10338 | 39172 ft | 521 kts | 176° |
| 2026-05-07 05:58 | 36.21181 | 113.12960 | 39185 ft | 528 kts | 169° |
| 2026-05-07 05:58 | 36.14267 | 113.16039 | 39184 ft | 527 kts | 170° |
| 2026-05-07 05:59 | 36.07366 | 113.19151 | 39168 ft | 526 kts | 169° |
| 2026-05-07 05:59 | 36.00554 | 113.22201 | 39167 ft | 523 kts | 169° |
| 2026-05-07 06:00 | 35.93696 | 113.25266 | 39171 ft | 524 kts | 169° |
| 2026-05-07 06:00 | 35.86796 | 113.28351 | 39168 ft | 524 kts | 169° |
| 2026-05-07 06:01 | 35.80031 | 113.31373 | 39169 ft | 515 kts | 169° |
| 2026-05-07 06:01 | 35.73325 | 113.34374 | 39163 ft | 512 kts | 169° |
| 2026-05-07 06:02 | 35.66596 | 113.37370 | 39170 ft | 515 kts | 169° |
| 2026-05-07 06:02 | 35.59869 | 113.40371 | 39178 ft | 512 kts | 169° |
| 2026-05-07 06:03 | 35.53195 | 113.43329 | 39165 ft | 506 kts | 169° |
| 2026-05-07 06:03 | 35.46603 | 113.46246 | 39174 ft | 511 kts | 169° |
| 2026-05-07 06:04 | 35.39895 | 113.49225 | 39168 ft | 513 kts | 169° |
| 2026-05-07 06:04 | 35.33178 | 113.52223 | 39172 ft | 514 kts | 169° |
| 2026-05-07 06:05 | 35.26403 | 113.55224 | 39170 ft | 520 kts | 168° |
| 2026-05-07 06:05 | 35.19596 | 113.58252 | 39166 ft | 520 kts | 169° |
| 2026-05-07 06:06 | 35.12800 | 113.61255 | 39163 ft | 519 kts | 169° |
| 2026-05-07 06:06 | 35.06023 | 113.64252 | 39171 ft | 516 kts | 168° |
| 2026-05-07 06:07 | 34.99293 | 113.67221 | 39156 ft | 513 kts | 168° |
| 2026-05-07 06:07 | 34.92622 | 113.70156 | 39151 ft | 513 kts | 168° |
| 2026-05-07 06:08 | 34.85888 | 113.73078 | 39158 ft | 509 kts | 174° |
| 2026-05-07 06:08 | 34.79130 | 113.75308 | 39142 ft | 507 kts | 173° |
| 2026-05-07 06:09 | 34.72327 | 113.77578 | 39157 ft | 506 kts | 173° |
| 2026-05-07 06:09 | 34.65524 | 113.79815 | 39161 ft | 506 kts | 173° |
| 2026-05-07 06:10 | 34.58760 | 113.82056 | 39159 ft | 506 kts | 173° |
| 2026-05-07 06:10 | 34.51952 | 113.84294 | 39154 ft | 507 kts | 173° |
| 2026-05-07 06:11 | 34.45127 | 113.86465 | 39146 ft | 507 kts | 174° |
| 2026-05-07 06:11 | 34.38283 | 113.88617 | 39148 ft | 508 kts | 173° |
| 2026-05-07 06:12 | 34.31443 | 113.90789 | 39104 ft | 507 kts | 173° |
| 2026-05-07 06:12 | 34.24656 | 113.92918 | 39143 ft | 508 kts | 173° |
| 2026-05-07 06:13 | 34.17813 | 113.95078 | 39138 ft | 508 kts | 173° |
| 2026-05-07 06:13 | 34.10948 | 113.97230 | 39138 ft | 508 kts | 173° |
| 2026-05-07 06:14 | 34.04107 | 113.99378 | 39137 ft | 508 kts | 173° |
| 2026-05-07 06:14 | 33.97255 | 114.01522 | 39127 ft | 508 kts | 173° |
| 2026-05-07 06:15 | 33.90441 | 114.03652 | 39133 ft | 508 kts | 173° |
| 2026-05-07 06:15 | 33.83583 | 114.05792 | 39133 ft | 508 kts | 173° |
| 2026-05-07 06:16 | 33.76801 | 114.07904 | 39128 ft | 507 kts | 173° |
| 2026-05-07 06:16 | 33.69975 | 114.10029 | 39126 ft | 506 kts | 173° |
| 2026-05-07 06:17 | 33.63149 | 114.12147 | 39127 ft | 506 kts | 173° |
| 2026-05-07 06:17 | 33.56343 | 114.14257 | 39120 ft | 505 kts | 173° |
| 2026-05-07 06:18 | 33.49527 | 114.16365 | 39122 ft | 507 kts | 173° |
| 2026-05-07 06:18 | 33.42842 | 114.19145 | 39139 ft | 524 kts | 156° |
| 2026-05-07 06:19 | 33.36981 | 114.24554 | 39155 ft | 543 kts | 135° |
| 2026-05-07 06:19 | 33.34673 | 114.28144 | 39154 ft | 549 kts | 124° |
| 2026-05-07 06:19 | 33.32901 | 114.32213 | 39152 ft | 554 kts | 112° |
| 2026-05-07 06:20 | 33.30153 | 114.40831 | 39127 ft | 554 kts | 111° |
| 2026-05-07 06:20 | 33.27468 | 114.49457 | 39125 ft | 553 kts | 111° |
| 2026-05-07 06:21 | 33.24795 | 114.58068 | 39122 ft | 553 kts | 111° |
| 2026-05-07 06:21 | 33.22108 | 114.66683 | 39116 ft | 553 kts | 112° |
| 2026-05-07 06:22 | 33.19434 | 114.75228 | 39110 ft | 553 kts | 112° |
| 2026-05-07 06:22 | 33.15367 | 114.88122 | 39110 ft | 553 kts | 112° |
| 2026-05-07 06:23 | 33.12650 | 114.96726 | 39093 ft | 555 kts | 112° |
| 2026-05-07 06:23 | 33.09917 | 115.05339 | 39089 ft | 554 kts | 112° |
| 2026-05-07 06:24 | 33.07191 | 115.13916 | 39086 ft | 551 kts | 112° |
| 2026-05-07 06:24 | 33.04466 | 115.22461 | 39085 ft | 552 kts | 112° |
| 2026-05-07 06:25 | 33.01730 | 115.31018 | 39081 ft | 553 kts | 112° |
| 2026-05-07 06:25 | 32.98983 | 115.39587 | 39078 ft | 553 kts | 112° |
| 2026-05-07 06:26 | 32.96265 | 115.48081 | 39077 ft | 551 kts | 112° |
| 2026-05-07 06:26 | 32.93613 | 115.56632 | 39072 ft | 550 kts | 112° |
| 2026-05-07 06:27 | 32.90904 | 115.65176 | 39071 ft | 552 kts | 112° |
| 2026-05-07 06:27 | 32.87887 | 115.73519 | 39112 ft | 544 kts | 126° |
| 2026-05-07 06:28 | 32.83264 | 115.80573 | 39076 ft | 540 kts | 135° |
| 2026-05-07 06:28 | 32.78416 | 115.87391 | 39076 ft | 540 kts | 134° |
| 2026-05-07 06:29 | 32.73624 | 115.94207 | 39077 ft | 540 kts | 134° |
| 2026-05-07 06:29 | 32.68782 | 116.01031 | 39072 ft | 539 kts | 135° |
| 2026-05-07 06:30 | 32.63963 | 116.07833 | 39066 ft | 538 kts | 134° |
| 2026-05-07 06:30 | 32.59124 | 116.14639 | 39069 ft | 541 kts | 135° |
| 2026-05-07 06:31 | 32.54345 | 116.21552 | 39064 ft | 542 kts | 133° |
| 2026-05-07 06:31 | 32.49531 | 116.28435 | 39067 ft | 542 kts | 134° |
| 2026-05-07 06:32 | 32.44825 | 116.35334 | 39067 ft | 540 kts | 133° |
| 2026-05-07 06:32 | 32.40065 | 116.42202 | 39057 ft | 539 kts | 134° |
| 2026-05-07 06:33 | 32.35325 | 116.49073 | 39058 ft | 539 kts | 134° |
| 2026-05-07 06:33 | 32.30574 | 116.55933 | 39053 ft | 539 kts | 134° |
| 2026-05-07 06:34 | 32.25825 | 116.62777 | 39043 ft | 538 kts | 134° |
| 2026-05-07 06:34 | 32.21056 | 116.69642 | 39041 ft | 540 kts | 134° |
| 2026-05-07 06:35 | 32.16257 | 116.76483 | 39035 ft | 540 kts | 135° |
| 2026-05-07 06:35 | 32.11390 | 116.83164 | 39030 ft | 540 kts | 135° |
| 2026-05-07 06:36 | 32.06551 | 116.89939 | 39016 ft | 539 kts | 135° |
| 2026-05-07 06:36 | 32.01688 | 116.96654 | 39012 ft | 537 kts | 135° |
| 2026-05-07 06:37 | 31.96847 | 117.03370 | 39012 ft | 537 kts | 135° |
| 2026-05-07 06:37 | 31.92020 | 117.10079 | 39015 ft | 536 kts | 135° |
| 2026-05-07 06:38 | 31.87176 | 117.16789 | 39016 ft | 539 kts | 135° |
| 2026-05-07 06:38 | 31.82321 | 117.23512 | 38995 ft | 538 kts | 135° |
| 2026-05-07 06:39 | 31.80090 | 117.27054 | 39039 ft | 542 kts | 123° |
| 2026-05-07 06:39 | 31.78415 | 117.30994 | 39040 ft | 548 kts | 112° |
| 2026-05-07 06:39 | 31.77323 | 117.35301 | 39033 ft | 552 kts | 101° |
| 2026-05-07 06:39 | 31.76849 | 117.39787 | 39017 ft | 553 kts | 95° |
| 2026-05-07 06:40 | 31.76221 | 117.48807 | 38988 ft | 554 kts | 94° |
| 2026-05-07 06:40 | 31.75603 | 117.57824 | 38991 ft | 554 kts | 95° |
| 2026-05-07 06:41 | 31.74960 | 117.66846 | 38989 ft | 553 kts | 95° |
| 2026-05-07 06:41 | 31.74437 | 117.74325 | 38977 ft | 552 kts | 95° |
| 2026-05-07 06:42 | 31.73788 | 117.83309 | 38971 ft | 552 kts | 95° |
| 2026-05-07 06:42 | 31.73141 | 117.92300 | 38971 ft | 552 kts | 95° |
| 2026-05-07 06:43 | 31.72481 | 118.01305 | 38974 ft | 552 kts | 95° |
| 2026-05-07 06:43 | 31.71823 | 118.10257 | 38958 ft | 549 kts | 95° |
| 2026-05-07 06:44 | 31.71200 | 118.19196 | 38954 ft | 549 kts | 95° |
| 2026-05-07 06:44 | 31.70587 | 118.28074 | 38952 ft | 548 kts | 95° |
| 2026-05-07 06:45 | 31.69951 | 118.37007 | 38947 ft | 550 kts | 95° |
| 2026-05-07 06:45 | 31.69317 | 118.45977 | 38949 ft | 552 kts | 95° |
| 2026-05-07 06:46 | 31.68667 | 118.54964 | 38954 ft | 552 kts | 95° |
| 2026-05-07 06:46 | 31.68017 | 118.63953 | 38959 ft | 551 kts | 95° |
| 2026-05-07 06:47 | 31.67361 | 118.72865 | 38956 ft | 551 kts | 95° |
| 2026-05-07 06:47 | 31.66699 | 118.81826 | 38961 ft | 551 kts | 95° |
| 2026-05-07 06:48 | 31.66028 | 118.90786 | 38961 ft | 550 kts | 95° |
| 2026-05-07 06:48 | 31.65352 | 118.99752 | 38956 ft | 551 kts | 96° |
| 2026-05-07 06:49 | 31.64832 | 119.08721 | 38943 ft | 550 kts | 94° |
| 2026-05-07 06:49 | 31.64315 | 119.17708 | 38943 ft | 552 kts | 93° |
| 2026-05-07 06:50 | 31.63973 | 119.26708 | 38932 ft | 552 kts | 93° |
| 2026-05-07 06:50 | 31.63531 | 119.35678 | 38934 ft | 549 kts | 94° |
| 2026-05-07 06:51 | 31.63130 | 119.44597 | 38927 ft | 546 kts | 93° |
| 2026-05-07 06:51 | 31.62699 | 119.53486 | 38916 ft | 546 kts | 94° |
| 2026-05-07 06:52 | 31.62273 | 119.62338 | 38912 ft | 548 kts | 94° |
| 2026-05-07 06:52 | 31.62059 | 119.66799 | 38720 ft | 547 kts | 94° |
| 2026-05-07 06:52 | 31.61842 | 119.71265 | 38303 ft | 547 kts | 94° |
| 2026-05-07 06:53 | 31.61642 | 119.75720 | 37935 ft | 546 kts | 94° |
| 2026-05-07 06:53 | 31.61448 | 119.80174 | 37562 ft | 546 kts | 94° |
| 2026-05-07 06:53 | 31.61242 | 119.84618 | 37211 ft | 545 kts | 95° |
| 2026-05-07 06:53 | 31.61028 | 119.89048 | 36852 ft | 544 kts | 95° |
| 2026-05-07 06:54 | 31.60819 | 119.93475 | 36496 ft | 543 kts | 95° |
| 2026-05-07 06:54 | 31.60613 | 119.97891 | 36148 ft | 542 kts | 95° |
| 2026-05-07 06:54 | 31.60405 | 120.02299 | 35833 ft | 540 kts | 95° |
| 2026-05-07 06:54 | 31.60191 | 120.06696 | 35421 ft | 541 kts | 95° |
| 2026-05-07 06:55 | 31.59977 | 120.11087 | 35073 ft | 540 kts | 95° |
| 2026-05-07 06:55 | 31.59763 | 120.15488 | 34652 ft | 540 kts | 95° |
| 2026-05-07 06:55 | 31.59548 | 120.19896 | 34281 ft | 539 kts | 95° |
| 2026-05-07 06:55 | 31.59333 | 120.24234 | 33931 ft | 538 kts | 95° |
| 2026-05-07 06:56 | 31.59112 | 120.28622 | 33519 ft | 537 kts | 96° |
| 2026-05-07 06:56 | 31.58566 | 120.32948 | 33029 ft | 534 kts | 107° |
| 2026-05-07 06:56 | 31.57447 | 120.37082 | 32484 ft | 532 kts | 111° |
| 2026-05-07 06:56 | 31.56236 | 120.41189 | 31975 ft | 533 kts | 111° |
| 2026-05-07 06:57 | 31.55011 | 120.45285 | 31533 ft | 532 kts | 111° |
| 2026-05-07 06:57 | 31.53798 | 120.49391 | 31129 ft | 531 kts | 111° |
| 2026-05-07 06:57 | 31.52607 | 120.53456 | 30587 ft | 525 kts | 111° |
| 2026-05-07 06:57 | 31.51427 | 120.57441 | 29915 ft | 521 kts | 111° |
| 2026-05-07 06:58 | 31.50240 | 120.61428 | 29202 ft | 515 kts | 111° |
| 2026-05-07 06:58 | 31.49068 | 120.65370 | 28488 ft | 510 kts | 111° |
| 2026-05-07 06:58 | 31.47900 | 120.69309 | 27593 ft | 494 kts | 111° |
| 2026-05-07 06:58 | 31.46793 | 120.73041 | 25497 ft | 491 kts | 111° |
| 2026-05-07 06:59 | 31.45674 | 120.76781 | 24156 ft | 476 kts | 111° |
| 2026-05-07 06:59 | 31.44613 | 120.80334 | 23317 ft | 449 kts | 111° |
| 2026-05-07 06:59 | 31.43571 | 120.83720 | 21843 ft | 436 kts | 112° |
| 2026-05-07 06:59 | 31.42519 | 120.87021 | 20483 ft | 429 kts | 112° |
| 2026-05-07 07:00 | 31.41497 | 120.90281 | 19757 ft | 427 kts | 111° |
| 2026-05-07 07:00 | 31.40490 | 120.93499 | 19595 ft | 415 kts | 115° |
| 2026-05-07 07:00 | 31.39070 | 120.96393 | 19439 ft | 408 kts | 130° |
| 2026-05-07 07:00 | 31.37306 | 120.98952 | 19001 ft | 398 kts | 133° |
| 2026-05-07 07:01 | 31.35481 | 121.01486 | 18158 ft | 409 kts | 133° |
| 2026-05-07 07:01 | 31.33673 | 121.04019 | 17635 ft | 403 kts | 133° |
| 2026-05-07 07:01 | 31.31908 | 121.06545 | 17082 ft | 399 kts | 133° |
| 2026-05-07 07:01 | 31.30158 | 121.09039 | 16523 ft | 394 kts | 133° |
| 2026-05-07 07:02 | 31.28420 | 121.11489 | 15985 ft | 390 kts | 133° |
| 2026-05-07 07:02 | 31.26696 | 121.13918 | 15451 ft | 386 kts | 133° |
| 2026-05-07 07:02 | 31.24998 | 121.16320 | 14947 ft | 381 kts | 133° |
| 2026-05-07 07:02 | 31.23348 | 121.18656 | 14625 ft | 373 kts | 133° |
| 2026-05-07 07:03 | 31.21677 | 121.21011 | 13952 ft | 378 kts | 133° |
| 2026-05-07 07:03 | 31.19997 | 121.23376 | 13244 ft | 378 kts | 133° |
| 2026-05-07 07:03 | 31.18323 | 121.25736 | 12512 ft | 377 kts | 132° |
| 2026-05-07 07:03 | 31.16666 | 121.28074 | 12058 ft | 369 kts | 132° |
| 2026-05-07 07:04 | 31.15056 | 121.30343 | 11738 ft | 359 kts | 132° |
| 2026-05-07 07:04 | 31.13471 | 121.32571 | 11533 ft | 353 kts | 131° |
| 2026-05-07 07:04 | 31.12190 | 121.35007 | 11352 ft | 357 kts | 111° |
| 2026-05-07 07:04 | 31.11465 | 121.37786 | 11115 ft | 354 kts | 106° |
| 2026-05-07 07:05 | 31.10857 | 121.40513 | 10870 ft | 341 kts | 104° |
| 2026-05-07 07:05 | 31.10288 | 121.43155 | 10633 ft | 329 kts | 105° |
| 2026-05-07 07:05 | 31.09706 | 121.45687 | 10408 ft | 318 kts | 106° |
| 2026-05-07 07:05 | 31.09130 | 121.48134 | 10184 ft | 307 kts | 105° |
| 2026-05-07 07:06 | 31.08590 | 121.50471 | 9980 ft | 299 kts | 105° |
| 2026-05-07 07:06 | 31.08057 | 121.52806 | 9787 ft | 295 kts | 105° |
| 2026-05-07 07:06 | 31.07532 | 121.55091 | 9592 ft | 291 kts | 105° |
| 2026-05-07 07:06 | 31.07005 | 121.57370 | 9400 ft | 291 kts | 105° |
| 2026-05-07 07:07 | 31.06477 | 121.59652 | 9207 ft | 291 kts | 105° |
| 2026-05-07 07:07 | 31.05952 | 121.61927 | 9003 ft | 290 kts | 105° |
| 2026-05-07 07:07 | 31.05427 | 121.64198 | 8816 ft | 289 kts | 105° |
| 2026-05-07 07:07 | 31.04904 | 121.66456 | 8607 ft | 288 kts | 105° |
| 2026-05-07 07:08 | 31.04354 | 121.68704 | 8257 ft | 288 kts | 111° |
| 2026-05-07 07:08 | 31.03234 | 121.70594 | 7902 ft | 284 kts | 139° |
| 2026-05-07 07:08 | 31.01554 | 121.71715 | 7570 ft | 278 kts | 163° |
| 2026-05-07 07:08 | 30.99727 | 121.72433 | 7227 ft | 275 kts | 164° |
| 2026-05-07 07:09 | 30.97918 | 121.73102 | 6885 ft | 271 kts | 164° |
| 2026-05-07 07:09 | 30.96131 | 121.73764 | 6537 ft | 268 kts | 163° |
| 2026-05-07 07:09 | 30.94372 | 121.74431 | 6239 ft | 261 kts | 163° |
| 2026-05-07 07:09 | 30.92698 | 121.75066 | 5927 ft | 252 kts | 163° |
| 2026-05-07 07:10 | 30.91051 | 121.75689 | 5609 ft | 246 kts | 163° |
| 2026-05-07 07:10 | 30.89429 | 121.76300 | 5264 ft | 243 kts | 163° |
| 2026-05-07 07:10 | 30.87820 | 121.76904 | 4935 ft | 241 kts | 163° |
| 2026-05-07 07:10 | 30.86224 | 121.77506 | 4597 ft | 240 kts | 163° |
| 2026-05-07 07:11 | 30.84707 | 121.78249 | 4198 ft | 238 kts | 142° |
| 2026-05-07 07:11 | 30.83857 | 121.79807 | 3943 ft | 230 kts | 99° |
| 2026-05-07 07:11 | 30.84048 | 121.81621 | 3875 ft | 228 kts | 68° |
| 2026-05-07 07:11 | 30.84647 | 121.83304 | 3860 ft | 228 kts | 64° |
| 2026-05-07 07:12 | 30.85350 | 121.84961 | 3806 ft | 227 kts | 52° |
| 2026-05-07 07:12 | 30.86629 | 121.85937 | 3751 ft | 222 kts | 13° |
| 2026-05-07 07:12 | 30.88146 | 121.86215 | 3714 ft | 221 kts | 4° |
| 2026-05-07 07:12 | 30.89677 | 121.86387 | 3683 ft | 221 kts | 3° |
| 2026-05-07 07:13 | 30.91208 | 121.86549 | 3658 ft | 218 kts | 3° |
| 2026-05-07 07:13 | 30.92669 | 121.86620 | 3594 ft | 201 kts | 356° |
| 2026-05-07 07:13 | 30.94000 | 121.86403 | 3502 ft | 187 kts | 343° |
| 2026-05-07 07:13 | 30.95204 | 121.85987 | 3419 ft | 178 kts | 342° |
| 2026-05-07 07:14 | 30.96384 | 121.85546 | 3216 ft | 178 kts | 340° |
| 2026-05-07 07:14 | 30.97551 | 121.85104 | 2991 ft | 176 kts | 340° |
| 2026-05-07 07:14 | 30.98702 | 121.84671 | 2763 ft | 171 kts | 340° |
| 2026-05-07 07:14 | 30.99840 | 121.84235 | 2541 ft | 172 kts | 340° |
| 2026-05-07 07:15 | 31.00927 | 121.83827 | 2318 ft | 154 kts | 341° |
| 2026-05-07 07:15 | 31.01924 | 121.83452 | 2125 ft | 151 kts | 341° |
| 2026-05-07 07:15 | 31.02911 | 121.83074 | 1935 ft | 151 kts | 341° |
| 2026-05-07 07:15 | 31.03915 | 121.82700 | 1741 ft | 151 kts | 342° |
| 2026-05-07 07:16 | 31.04927 | 121.82315 | 1540 ft | 154 kts | 341° |
| 2026-05-07 07:16 | 31.05942 | 121.81931 | 1355 ft | 153 kts | 342° |
| 2026-05-07 07:16 | 31.06963 | 121.81548 | 1141 ft | 154 kts | 342° |
| 2026-05-07 07:16 | 31.07967 | 121.81171 | 947 ft | 154 kts | 343° |
| 2026-05-07 07:17 | 31.08994 | 121.80781 | 786 ft | 152 kts | 343° |
| 2026-05-07 07:17 | 31.10009 | 121.80398 | 573 ft | 151 kts | 344° |
| 2026-05-07 07:17 | 31.11002 | 121.80027 | 377 ft | 150 kts | 343° |
| 2026-05-07 07:17 | 31.11968 | 121.79656 | 195 ft | 147 kts | 344° |
| 2026-05-07 07:18 | 31.12946 | 121.79283 | 32 ft | 142 kts | 343° |
| 2026-05-07 07:18 | 31.13725 | 121.79002 | 27 ft | 104 kts | 343° |
| 2026-05-07 07:18 | 31.14318 | 121.78778 | 28 ft | 75 kts | 342° |
| 2026-05-07 07:18 | 31.14732 | 121.78623 | 27 ft | 44 kts | 342° |
| 2026-05-07 07:19 | 31.14960 | 121.78629 | 28 ft | 27 kts | 12° |
| 2026-05-07 07:19 | 31.15061 | 121.78656 | 28 ft | 5 kts | 32° |
| 2026-05-07 07:19 | 31.15089 | 121.78702 | 26 ft | 9 kts | 67° |
| 2026-05-07 07:19 | 31.15110 | 121.78769 | 28 ft | 9 kts | 71° |
| 2026-05-07 07:20 | 31.15138 | 121.78868 | 29 ft | 19 kts | 71° |
| 2026-05-07 07:20 | 31.15182 | 121.79022 | 28 ft | 20 kts | 73° |
| 2026-05-07 07:20 | 31.15205 | 121.79139 | 28 ft | 10 kts | 103° |
| 2026-05-07 07:20 | 31.15149 | 121.79185 | 28 ft | 13 kts | 159° |
| 2026-05-07 07:21 | 31.15060 | 121.79219 | 28 ft | 14 kts | 161° |
| 2026-05-07 07:21 | 31.14965 | 121.79254 | 29 ft | 14 kts | 163° |
| 2026-05-07 07:21 | 31.14868 | 121.79291 | 29 ft | 15 kts | 161° |
| 2026-05-07 07:21 | 31.14766 | 121.79331 | 29 ft | 16 kts | 162° |
| 2026-05-07 07:22 | 31.14660 | 121.79371 | 29 ft | 16 kts | 162° |
| 2026-05-07 07:22 | 31.14551 | 121.79412 | 28 ft | 17 kts | 162° |
| 2026-05-07 07:22 | 31.14436 | 121.79455 | 28 ft | 18 kts | 162° |
| 2026-05-07 07:22 | 31.14319 | 121.79500 | 28 ft | 18 kts | 161° |
| 2026-05-07 07:23 | 31.14197 | 121.79546 | 28 ft | 19 kts | 162° |
| 2026-05-07 07:23 | 31.14074 | 121.79593 | 28 ft | 19 kts | 163° |
| 2026-05-07 07:23 | 31.13948 | 121.79638 | 28 ft | 19 kts | 162° |
| 2026-05-07 07:23 | 31.13826 | 121.79686 | 28 ft | 20 kts | 161° |
| 2026-05-07 07:24 | 31.13696 | 121.79735 | 27 ft | 20 kts | 162° |
| 2026-05-07 07:24 | 31.13568 | 121.79782 | 27 ft | 18 kts | 162° |
| 2026-05-07 07:24 | 31.13477 | 121.79817 | 28 ft | 10 kts | 161° |
| 2026-05-07 07:24 | 31.13446 | 121.79868 | 28 ft | 10 kts | 86° |
| 2026-05-07 07:25 | 31.13487 | 121.80024 | 28 ft | 13 kts | 72° |
| 2026-05-07 07:25 | 31.13513 | 121.80112 | 28 ft | 9 kts | 64° |
| 2026-05-07 07:25 | 31.13540 | 121.80126 | 28 ft | 5 kts | 352° |
| 2026-05-07 07:26 | 31.13586 | 121.80112 | 28 ft | 8 kts | 344° |
| 2026-05-07 07:26 | 31.13633 | 121.80101 | 28 ft | 4 kts | 18° |
| 2026-05-07 07:26 | 31.13645 | 121.80117 | 28 ft | 4 kts | 58° |
| 2026-05-07 07:26 | 31.13656 | 121.80147 | 28 ft | 4 kts | 72° |
| 2026-05-07 07:27 | 31.13666 | 121.80183 | 28 ft | 5 kts | 72° |
| 2026-05-07 07:27 | 31.13670 | 121.80198 | 28 ft | 1 kts | 72° |
| 2026-05-07 07:27 | 31.13670 | 121.80199 | 28 ft | 0 kts | 72° |